Badger, Iowa
Current Conditions -  °F | °C
As of 7:35 AM on Thursday 18 Dec 2014 (Local Time) from KFOD Reporting Station
Overcast Overcast  
Wind Chill:   Ceiling: 8500
Heat Index: 19°   Visibility: 10mi
Dew Point: 16°   Wind: 8mph
Humidity: 86%   Direction: 90°E
Pressure: 30.28"   Gusts: NA
Location:  42.61°N, 94.15°W
Report Text: KFOD 181335Z AUTO 09007KT 10SM OVC085 M07/M09 A3028 RMK AO1
Loading
Personal Weather Stations






























Interactive Weather Map New forecast layout! Learn more

10-Day Weather Forecast

Advertisements
Track Severe Weather on mobile